createdAt,value
2023-04-26T00:00:34.045Z,95046.31
2023-04-26T00:03:01.916Z,95045.47
2023-04-26T00:05:30.019Z,95039.28
2023-04-26T00:07:58.271Z,95047.25
2023-04-26T00:10:27.441Z,95036.81
2023-04-26T00:12:55.153Z,95030.63
2023-04-26T00:15:22.970Z,95035.03
2023-04-26T00:17:50.679Z,95033.25
2023-04-26T00:20:18.478Z,95034.19
2023-04-26T00:22:46.625Z,95034.06
2023-04-26T00:25:14.470Z,95036.81
2023-04-26T00:27:43.443Z,95027.34
2023-04-26T00:30:11.818Z,95026.34
2023-04-26T00:32:39.525Z,95033.41
2023-04-26T00:35:09.038Z,95033.41
2023-04-26T00:37:36.722Z,95036.97
2023-04-26T00:40:05.104Z,95032.72
2023-04-26T00:42:32.802Z,95031.75
2023-04-26T00:45:01.854Z,95030.91
2023-04-26T00:47:31.510Z,95030.91
2023-04-26T00:49:59.981Z,95040.53
2023-04-26T00:52:28.980Z,95035.19
2023-04-26T00:54:57.282Z,95043.16
2023-04-26T00:57:24.973Z,95043.16
2023-04-26T00:59:52.619Z,95040.53
2023-04-26T01:02:21.707Z,95041.38
2023-04-26T01:04:49.460Z,95046.59
2023-04-26T01:07:17.238Z,95043.97
2023-04-26T01:09:45.786Z,95047.59
2023-04-26T01:12:14.382Z,95046.59
2023-04-26T01:14:42.030Z,95051.00
2023-04-26T01:17:09.640Z,95052.66
2023-04-26T01:19:48.203Z,95045.78
2023-04-26T01:22:16.127Z,95043.03
2023-04-26T01:24:47.385Z,95043.03
2023-04-26T01:27:16.677Z,95048.25
2023-04-26T01:29:44.526Z,95048.25
2023-04-26T01:32:12.867Z,95049.06
2023-04-26T01:34:40.492Z,95052.47
2023-04-26T01:37:08.435Z,95055.25
2023-04-26T01:39:37.423Z,95050.03
2023-04-26T01:42:07.079Z,95052.66
2023-04-26T01:44:34.683Z,95055.25
2023-04-26T01:47:02.392Z,95058.69
2023-04-26T01:49:30.484Z,95054.44
2023-04-26T01:51:58.118Z,95059.53
2023-04-26T01:54:25.729Z,95067.38
2023-04-26T01:56:53.401Z,95058.69
2023-04-26T01:59:22.693Z,95062.28
2023-04-26T02:01:50.592Z,95060.50
2023-04-26T02:04:18.242Z,95070.09
2023-04-26T02:06:45.855Z,95068.31
2023-04-26T02:09:13.760Z,95064.88
2023-04-26T02:11:41.455Z,95066.66
2023-04-26T02:14:09.058Z,95067.50
2023-04-26T02:16:38.145Z,95060.66
2023-04-26T02:19:10.829Z,95051.00
2023-04-26T02:21:52.682Z,95055.44
2023-04-26T02:24:21.517Z,95055.44
2023-04-26T02:26:49.130Z,95050.19
2023-04-26T02:29:17.032Z,95048.38
2023-04-26T02:31:46.054Z,95051.97
2023-04-26T02:34:13.916Z,95050.19
2023-04-26T02:36:41.547Z,95049.38
2023-04-26T02:39:09.917Z,95054.59
2023-04-26T02:41:37.497Z,95050.34
2023-04-26T02:44:05.300Z,95048.53
2023-04-26T02:46:32.927Z,95045.94
2023-04-26T02:49:01.893Z,95049.38
2023-04-26T02:51:29.583Z,95045.94
2023-04-26T02:53:57.242Z,95042.50
2023-04-26T02:56:25.017Z,95041.69
2023-04-26T02:58:52.988Z,95039.88
2023-04-26T03:01:21.092Z,95044.97
2023-04-26T03:03:49.389Z,95045.94
2023-04-26T03:06:18.446Z,95050.19
2023-04-26T03:08:46.114Z,95045.78
2023-04-26T03:11:13.745Z,95052.81
2023-04-26T03:13:41.373Z,95053.59
2023-04-26T03:16:09.463Z,95043.16
2023-04-26T03:18:37.479Z,95051.97
2023-04-26T03:21:05.121Z,95048.38
2023-04-26T03:23:34.173Z,95051.00
2023-04-26T03:26:01.776Z,95051.00
2023-04-26T03:28:29.372Z,95047.59
2023-04-26T03:30:57.156Z,95050.19
2023-04-26T03:33:24.846Z,95053.78
2023-04-26T03:35:52.559Z,95058.03
2023-04-26T03:38:20.299Z,95053.78
2023-04-26T03:40:49.239Z,95057.22
2023-04-26T03:43:16.854Z,95060.78
2023-04-26T03:45:48.749Z,95062.44
2023-04-26T03:48:16.841Z,95059.81
2023-04-26T03:50:45.998Z,95065.03
2023-04-26T03:53:13.974Z,95065.03
2023-04-26T03:55:41.641Z,95067.66
2023-04-26T03:58:10.714Z,95068.63
2023-04-26T04:00:38.669Z,95062.59
2023-04-26T04:03:06.703Z,95069.44
2023-04-26T04:05:34.832Z,95067.81
2023-04-26T04:08:03.059Z,95070.44
2023-04-26T04:10:31.214Z,95067.66
2023-04-26T04:12:59.233Z,95065.88
2023-04-26T04:15:28.330Z,95059.81
2023-04-26T04:17:56.045Z,95068.50
2023-04-26T04:20:23.788Z,95069.44
2023-04-26T04:22:51.750Z,95066.84
2023-04-26T04:25:21.270Z,95070.09
2023-04-26T04:27:50.236Z,95074.50
2023-04-26T04:30:17.956Z,95072.72
2023-04-26T04:32:47.112Z,95077.94
2023-04-26T04:35:14.968Z,95083.16
2023-04-26T04:37:44.111Z,95090.06
2023-04-26T04:40:13.324Z,95087.44
2023-04-26T04:42:41.097Z,95091.66
2023-04-26T04:45:09.817Z,95097.72
2023-04-26T04:47:39.673Z,95090.06
2023-04-26T04:50:09.845Z,95097.88
2023-04-26T04:52:37.822Z,95090.06
2023-04-26T04:55:06.248Z,95093.50
2023-04-26T04:57:33.926Z,95097.88
2023-04-26T05:00:10.457Z,95105.72
2023-04-26T05:02:38.408Z,95109.16
2023-04-26T05:05:08.387Z,95112.56
2023-04-26T05:07:36.196Z,95110.94
2023-04-26T05:10:04.665Z,95114.53
2023-04-26T05:12:32.339Z,95113.56
2023-04-26T05:14:59.908Z,95124.84
2023-04-26T05:17:27.581Z,95124.97
2023-04-26T05:19:55.298Z,95121.41
2023-04-26T05:22:24.275Z,95113.69
2023-04-26T05:24:52.228Z,95110.28
2023-04-26T05:27:19.964Z,95118.13
2023-04-26T05:29:48.538Z,95123.34
2023-04-26T05:32:16.297Z,95123.34
2023-04-26T05:34:43.902Z,95128.56
2023-04-26T05:37:11.480Z,95127.91
2023-04-26T05:39:40.471Z,95132.16
2023-04-26T05:42:08.138Z,95133.94
2023-04-26T05:44:36.063Z,95131.31
2023-04-26T05:47:03.698Z,95140.97
2023-04-26T05:49:31.374Z,95132.31
2023-04-26T05:52:00.505Z,95133.94
2023-04-26T05:54:28.106Z,95139.16
2023-04-26T05:56:58.975Z,95126.25
2023-04-26T05:59:26.919Z,95144.38
2023-04-26T06:01:54.576Z,95136.53
2023-04-26T06:04:22.318Z,95143.72
2023-04-26T06:06:50.245Z,95144.53
2023-04-26T06:09:19.660Z,95147.97
2023-04-26T06:11:47.836Z,95154.84
2023-04-26T06:14:29.472Z,95157.59
2023-04-26T06:16:58.477Z,95160.06
2023-04-26T06:19:26.210Z,95153.03
2023-04-26T06:21:55.292Z,95151.25
2023-04-26T06:24:23.981Z,95153.88
2023-04-26T06:26:51.672Z,95158.09
2023-04-26T06:29:21.740Z,95153.72
2023-04-26T06:31:49.602Z,95157.16
2023-04-26T06:34:17.210Z,95157.97
2023-04-26T06:36:44.836Z,95158.81
2023-04-26T06:39:12.492Z,95160.44
2023-04-26T06:41:40.074Z,95164.03
2023-04-26T06:44:07.683Z,95156.19
2023-04-26T06:46:38.061Z,95162.22
2023-04-26T06:49:05.784Z,95163.19
2023-04-26T06:51:33.421Z,95164.03
2023-04-26T06:54:01.393Z,95164.81
2023-04-26T06:56:29.038Z,95169.25
2023-04-26T06:59:01.485Z,95166.66
2023-04-26T07:01:29.505Z,95165.00
2023-04-26T07:03:58.935Z,95168.44
2023-04-26T07:06:27.760Z,95170.22
2023-04-26T07:08:55.487Z,95159.75
2023-04-26T07:11:25.306Z,95164.16
2023-04-26T07:13:54.019Z,95175.44
2023-04-26T07:16:21.828Z,95162.53
2023-04-26T07:18:49.617Z,95162.53
2023-04-26T07:21:18.587Z,95176.41
2023-04-26T07:23:46.288Z,95171.16
2023-04-26T07:26:13.933Z,95173.78
2023-04-26T07:28:41.602Z,95170.38
2023-04-26T07:31:10.657Z,95167.75
2023-04-26T07:33:38.836Z,95163.50
2023-04-26T07:36:06.933Z,95158.28
2023-04-26T07:38:36.011Z,95166.09
2023-04-26T07:41:04.562Z,95161.72
2023-04-26T07:43:33.063Z,95158.28
2023-04-26T07:46:02.120Z,95153.03
2023-04-26T07:48:30.083Z,95147.81
2023-04-26T07:50:57.864Z,95154.69
2023-04-26T07:53:25.552Z,95147.66
2023-04-26T07:55:54.742Z,95153.88
2023-04-26T07:58:22.328Z,95167.75
2023-04-26T08:00:49.944Z,95166.78
2023-04-26T08:03:18.062Z,95155.50
2023-04-26T08:05:46.168Z,95157.31
2023-04-26T08:08:14.025Z,95158.94
2023-04-26T08:10:42.678Z,95156.31
2023-04-26T08:13:11.751Z,95151.94
2023-04-26T08:15:39.338Z,95158.94
2023-04-26T08:18:07.516Z,95156.31
2023-04-26T08:20:35.178Z,95153.72
2023-04-26T08:23:02.835Z,95152.09
2023-04-26T08:25:30.645Z,95152.88
2023-04-26T08:27:58.228Z,95157.31
2023-04-26T08:30:27.207Z,95158.94
2023-04-26T08:32:54.825Z,95158.09
2023-04-26T08:35:22.691Z,95159.94
2023-04-26T08:37:50.651Z,95156.47
2023-04-26T08:40:25.200Z,95153.88
2023-04-26T08:42:53.743Z,95157.31
2023-04-26T08:45:22.483Z,95157.44
2023-04-26T08:47:54.126Z,95153.03
2023-04-26T08:50:23.354Z,95151.25
2023-04-26T08:52:52.443Z,95147.00
2023-04-26T08:55:21.896Z,95148.81
2023-04-26T08:57:51.696Z,95153.03
2023-04-26T09:00:20.374Z,95153.03
2023-04-26T09:02:51.110Z,95150.44
2023-04-26T09:05:24.376Z,95154.84
2023-04-26T09:07:54.504Z,95154.03
2023-04-26T09:10:23.287Z,95160.22
2023-04-26T09:12:52.796Z,95158.44
2023-04-26T09:15:22.698Z,95161.03
2023-04-26T09:17:51.540Z,95155.00
2023-04-26T09:20:23.537Z,95155.81
2023-04-26T09:22:52.342Z,95155.00
2023-04-26T09:25:27.789Z,95151.53
2023-04-26T09:27:55.545Z,95156.78
2023-04-26T09:30:23.632Z,95155.00
2023-04-26T09:32:53.955Z,95150.59
2023-04-26T09:35:33.318Z,95147.97
2023-04-26T09:38:09.596Z,95149.59
2023-04-26T09:40:41.024Z,95158.28
2023-04-26T09:43:11.535Z,95151.41
2023-04-26T09:45:46.625Z,95156.66
2023-04-26T09:48:16.898Z,95146.19
2023-04-26T09:50:46.954Z,95159.25
2023-04-26T09:53:29.797Z,95163.50
2023-04-26T09:55:58.340Z,95156.66
2023-04-26T09:58:25.974Z,95173.94
2023-04-26T10:00:54.617Z,95174.78
2023-04-26T10:03:24.164Z,95161.88
2023-04-26T10:05:53.756Z,95157.44
2023-04-26T10:08:21.379Z,95163.66
2023-04-26T10:10:49.016Z,95155.81
2023-04-26T10:13:16.802Z,95143.72
2023-04-26T10:15:44.683Z,95144.53
2023-04-26T10:18:12.305Z,95146.19
2023-04-26T10:20:42.822Z,95149.75
2023-04-26T10:23:20.933Z,95130.66
2023-04-26T10:25:49.184Z,95139.31
2023-04-26T10:28:17.481Z,95122.03
2023-04-26T10:30:58.811Z,95127.25
2023-04-26T10:33:27.283Z,95140.31
2023-04-26T10:36:07.504Z,95127.25
2023-04-26T10:38:37.950Z,95126.41
2023-04-26T10:41:34.958Z,95121.03
2023-04-26T10:44:35.929Z,95114.19
2023-04-26T10:47:03.664Z,95111.56
2023-04-26T10:49:45.763Z,95113.34
2023-04-26T10:52:15.105Z,95103.72
2023-04-26T10:54:57.311Z,95102.91
2023-04-26T10:57:46.279Z,95096.84
2023-04-26T11:00:20.935Z,95095.06
2023-04-26T11:02:55.923Z,95085.44
2023-04-26T11:05:37.823Z,95083.78
2023-04-26T11:08:06.804Z,95082.84
2023-04-26T11:10:38.941Z,95084.47
2023-04-26T11:13:06.611Z,95084.47
2023-04-26T11:15:35.182Z,95081.84
2023-04-26T11:18:04.321Z,95074.84
2023-04-26T11:20:32.905Z,95066.16
2023-04-26T11:23:00.976Z,95071.41
2023-04-26T11:25:29.087Z,95065.22
2023-04-26T11:28:04.552Z,95067.97
2023-04-26T11:30:32.790Z,95066.16
2023-04-26T11:33:00.580Z,95060.00
2023-04-26T11:35:29.856Z,95060.94
2023-04-26T11:38:01.223Z,95059.16
2023-04-26T11:40:31.117Z,95055.56
2023-04-26T11:43:03.360Z,95053.78
2023-04-26T11:45:35.871Z,95058.16
2023-04-26T11:48:05.781Z,95062.44
2023-04-26T11:50:34.776Z,95064.22
2023-04-26T11:53:04.774Z,95067.81
2023-04-26T11:55:33.994Z,95067.66
2023-04-26T11:58:01.789Z,95070.28
2023-04-26T12:00:29.425Z,95067.81
2023-04-26T12:02:59.896Z,95070.28
2023-04-26T12:05:30.665Z,95072.88
2023-04-26T12:07:59.897Z,95066.84
2023-04-26T12:10:29.529Z,95065.22
2023-04-26T12:12:59.681Z,95066.84
2023-04-26T12:15:33.570Z,95072.06
2023-04-26T12:18:08.771Z,95060.78
2023-04-26T12:20:37.786Z,95065.22
2023-04-26T12:23:07.704Z,95067.81
2023-04-26T12:25:36.709Z,95060.78
2023-04-26T12:28:05.836Z,95071.22
2023-04-26T12:30:33.537Z,95067.81
2023-04-26T12:33:15.574Z,95067.66
2023-04-26T12:35:44.637Z,95066.00
2023-04-26T12:38:13.258Z,95066.16
2023-04-26T12:40:41.733Z,95061.78
2023-04-26T12:43:09.741Z,95068.50
2023-04-26T12:45:37.507Z,95063.41
2023-04-26T12:48:06.887Z,95053.78
2023-04-26T12:50:34.663Z,95056.38
2023-04-26T12:53:02.304Z,95043.31
2023-04-26T12:55:32.497Z,95047.72
2023-04-26T12:58:00.692Z,95048.53
2023-04-26T13:00:28.326Z,95054.59
2023-04-26T13:02:56.016Z,95055.44
2023-04-26T13:05:25.580Z,95052.81
2023-04-26T13:07:53.320Z,95051.16
2023-04-26T13:10:20.950Z,95047.59
2023-04-26T13:12:48.589Z,95049.38
2023-04-26T13:15:17.521Z,95045.94
2023-04-26T13:17:45.662Z,95037.13
2023-04-26T13:20:14.339Z,95038.25
2023-04-26T13:22:43.478Z,95036.47
2023-04-26T13:25:13.093Z,95043.31
2023-04-26T13:27:41.121Z,95043.50
2023-04-26T13:30:10.113Z,95045.94
2023-04-26T13:32:37.831Z,95039.88
2023-04-26T13:35:06.179Z,95036.47
2023-04-26T13:37:34.347Z,95044.31
2023-04-26T13:40:03.983Z,95026.03
2023-04-26T13:42:32.486Z,95019.97
2023-04-26T13:45:01.314Z,95030.59
2023-04-26T13:47:29.285Z,95025.19
2023-04-26T13:49:56.955Z,95019.97
2023-04-26T13:52:24.631Z,95014.75
2023-04-26T13:54:53.020Z,95014.75
2023-04-26T13:57:22.007Z,95016.53
2023-04-26T13:59:49.625Z,95011.31
2023-04-26T14:02:17.383Z,95011.31
2023-04-26T14:04:45.472Z,95006.09
2023-04-26T14:07:13.282Z,95003.47
2023-04-26T14:09:41.411Z,95006.91
2023-04-26T14:12:10.082Z,95002.66
2023-04-26T14:14:39.038Z,95008.69
2023-04-26T14:17:06.595Z,95006.91
2023-04-26T14:19:34.244Z,95007.75
2023-04-26T14:22:01.880Z,95006.91
2023-04-26T14:24:29.488Z,95019.81
2023-04-26T14:26:58.338Z,95014.59
2023-04-26T14:29:26.001Z,95011.97
2023-04-26T14:31:55.048Z,95011.97
2023-04-26T14:34:23.636Z,95020.63
2023-04-26T14:36:51.297Z,95017.19
2023-04-26T14:39:18.888Z,95014.59
2023-04-26T14:41:46.471Z,95013.75
2023-04-26T14:44:14.095Z,95008.53
2023-04-26T14:46:41.790Z,95002.50
2023-04-26T14:49:11.078Z,95006.75
2023-04-26T14:51:38.666Z,95001.53
2023-04-26T14:54:06.455Z,94996.31
2023-04-26T14:56:34.683Z,94994.69
2023-04-26T14:59:02.580Z,94995.47
2023-04-26T15:01:30.437Z,95003.31
2023-04-26T15:04:00.441Z,95007.75
2023-04-26T15:06:32.122Z,95006.09
2023-04-26T15:08:59.922Z,95002.66
2023-04-26T15:11:27.490Z,94999.06
2023-04-26T15:13:55.147Z,95000.88
2023-04-26T15:16:22.916Z,94996.47
2023-04-26T15:18:50.557Z,94989.59
2023-04-26T15:21:18.215Z,94998.09
2023-04-26T15:23:47.206Z,94995.47
2023-04-26T15:26:15.103Z,94998.91
2023-04-26T15:28:42.719Z,94992.06
2023-04-26T15:31:11.950Z,94996.31
2023-04-26T15:33:39.691Z,94990.25
2023-04-26T15:36:08.428Z,94996.31
2023-04-26T15:38:36.898Z,94997.13
2023-04-26T15:41:06.536Z,94998.75
2023-04-26T15:43:34.270Z,94996.13
2023-04-26T15:46:01.935Z,94994.34
2023-04-26T15:48:29.589Z,94995.19
2023-04-26T15:50:57.928Z,94995.19
2023-04-26T15:53:26.061Z,94996.97
2023-04-26T15:55:53.798Z,94990.78
2023-04-26T15:58:22.832Z,94998.44
2023-04-26T16:00:50.495Z,95008.91
2023-04-26T16:03:18.289Z,95000.22
2023-04-26T16:05:46.113Z,95006.28
2023-04-26T16:08:17.652Z,95000.22
2023-04-26T16:10:52.140Z,94995.84
2023-04-26T16:13:19.912Z,95000.09
2023-04-26T16:15:49.066Z,95000.09
2023-04-26T16:18:16.697Z,94996.66
2023-04-26T16:20:44.330Z,94995.00
2023-04-26T16:23:12.082Z,94992.25
2023-04-26T16:25:40.154Z,94992.94
2023-04-26T16:28:09.540Z,95002.47
2023-04-26T16:30:38.339Z,94998.38
2023-04-26T16:33:10.084Z,94998.84
2023-04-26T16:35:38.008Z,94995.72
2023-04-26T16:38:05.681Z,94995.88
2023-04-26T16:40:33.620Z,94993.41
2023-04-26T16:43:01.256Z,94993.59
2023-04-26T16:45:28.883Z,94991.09
2023-04-26T16:47:56.753Z,94998.16
2023-04-26T16:50:25.985Z,95005.00
2023-04-26T16:52:53.712Z,95006.78
2023-04-26T16:55:21.455Z,95007.78
2023-04-26T16:57:49.068Z,95008.59
2023-04-26T17:00:17.911Z,95007.78
2023-04-26T17:02:45.627Z,95010.56
2023-04-26T17:05:14.155Z,95008.72
2023-04-26T17:07:43.148Z,95012.16
2023-04-26T17:10:11.304Z,95018.38
2023-04-26T17:12:38.915Z,95015.78
2023-04-26T17:15:08.576Z,95015.91
2023-04-26T17:17:36.228Z,95015.78
2023-04-26T17:20:06.365Z,95021.13
2023-04-26T17:22:34.017Z,95025.41
2023-04-26T17:25:04.820Z,95028.00
2023-04-26T17:27:32.392Z,95025.41
2023-04-26T17:30:00.055Z,95022.78
2023-04-26T17:32:28.005Z,95030.63
2023-04-26T17:34:56.038Z,95025.41
2023-04-26T17:37:23.777Z,95028.00
2023-04-26T17:39:51.378Z,95032.25
2023-04-26T17:42:20.698Z,95030.47
2023-04-26T17:44:48.338Z,95046.97
2023-04-26T17:47:15.905Z,95041.75
2023-04-26T17:49:43.550Z,95041.75
2023-04-26T17:52:11.181Z,95048.75
2023-04-26T17:54:38.774Z,95053.81
2023-04-26T17:57:07.732Z,95051.34
2023-04-26T17:59:37.145Z,95047.91
2023-04-26T18:02:04.775Z,95054.81
2023-04-26T18:04:32.647Z,95060.03
2023-04-26T18:07:01.178Z,95056.59
2023-04-26T18:09:28.765Z,95057.41
2023-04-26T18:11:56.403Z,95057.56
2023-04-26T18:14:24.942Z,95068.81
2023-04-26T18:16:53.937Z,95060.84
2023-04-26T18:19:21.593Z,95066.06
2023-04-26T18:21:52.158Z,95065.25
2023-04-26T18:24:20.101Z,95067.88
2023-04-26T18:26:47.818Z,95067.88
2023-04-26T18:29:15.370Z,95073.91
2023-04-26T18:31:43.058Z,95073.91
2023-04-26T18:34:12.052Z,95075.69
2023-04-26T18:36:39.651Z,95080.94
2023-04-26T18:39:07.997Z,95088.59
2023-04-26T18:41:35.590Z,95085.16
2023-04-26T18:44:03.178Z,95084.38
2023-04-26T18:46:31.044Z,95090.38
2023-04-26T18:48:58.695Z,95091.38
2023-04-26T18:51:27.676Z,95093.00
2023-04-26T18:53:55.773Z,95098.22
2023-04-26T18:56:23.645Z,95096.44
2023-04-26T18:58:51.678Z,95104.28
2023-04-26T19:01:19.328Z,95095.63
2023-04-26T19:03:48.476Z,95114.59
2023-04-26T19:06:16.503Z,95117.22
2023-04-26T19:08:46.247Z,95110.34
2023-04-26T19:11:14.315Z,95109.38
2023-04-26T19:13:42.775Z,95109.38
2023-04-26T19:16:11.065Z,95108.53
2023-04-26T19:18:40.500Z,95111.97
2023-04-26T19:21:09.323Z,95112.78
2023-04-26T19:23:37.719Z,95111.97
2023-04-26T19:26:09.055Z,95114.59
2023-04-26T19:28:37.577Z,95115.41
2023-04-26T19:31:05.360Z,95113.59
2023-04-26T19:33:33.066Z,95120.63
2023-04-26T19:36:00.675Z,95115.41
2023-04-26T19:38:28.290Z,95124.06
2023-04-26T19:40:55.928Z,95119.81
2023-04-26T19:43:24.879Z,95119.81
2023-04-26T19:45:52.509Z,95124.22
2023-04-26T19:48:20.125Z,95122.56
2023-04-26T19:50:48.009Z,95127.66
2023-04-26T19:53:16.221Z,95127.78
2023-04-26T19:55:43.990Z,95127.78
2023-04-26T19:58:11.696Z,95130.28
2023-04-26T20:00:40.732Z,95145.94
2023-04-26T20:03:08.592Z,95136.47
2023-04-26T20:05:36.403Z,95140.84
2023-04-26T20:08:04.200Z,95132.06
2023-04-26T20:10:33.536Z,95134.69
2023-04-26T20:13:01.395Z,95137.28
2023-04-26T20:15:32.157Z,95139.91
2023-04-26T20:18:02.886Z,95132.06
2023-04-26T20:20:30.638Z,95130.41
2023-04-26T20:22:58.223Z,95128.78
2023-04-26T20:25:26.104Z,95139.06
2023-04-26T20:27:53.811Z,95133.84
2023-04-26T20:30:21.445Z,95126.00
2023-04-26T20:32:49.152Z,95123.41
2023-04-26T20:35:18.301Z,95130.28
2023-04-26T20:37:45.872Z,95132.88
2023-04-26T20:40:13.651Z,95134.50
2023-04-26T20:42:41.309Z,95134.69
2023-04-26T20:45:10.083Z,95141.53
2023-04-26T20:47:37.979Z,95146.75
2023-04-26T20:50:06.466Z,95148.41
2023-04-26T20:52:35.507Z,95148.56
2023-04-26T20:55:03.220Z,95150.19
2023-04-26T20:57:30.829Z,95152.63
2023-04-26T20:59:58.522Z,95155.41
2023-04-26T21:02:26.593Z,95152.63
2023-04-26T21:04:54.509Z,95154.47
2023-04-26T21:07:22.162Z,95151.03
2023-04-26T21:09:51.177Z,95151.03
2023-04-26T21:12:18.774Z,95149.22
2023-04-26T21:14:47.839Z,95145.78
2023-04-26T21:17:15.533Z,95152.81
2023-04-26T21:19:43.451Z,95147.56
2023-04-26T21:22:11.758Z,95149.38
2023-04-26T21:24:39.416Z,95148.41
2023-04-26T21:27:08.435Z,95158.84
2023-04-26T21:29:36.077Z,95152.81
2023-04-26T21:32:03.781Z,95159.81
2023-04-26T21:34:31.516Z,95147.56
2023-04-26T21:36:59.121Z,95150.97
2023-04-26T21:39:26.702Z,95143.78
2023-04-26T21:41:54.357Z,95138.44
2023-04-26T21:44:23.329Z,95148.06
2023-04-26T21:46:51.091Z,95139.19
2023-04-26T21:49:18.769Z,95136.47
2023-04-26T21:51:46.355Z,95151.47
2023-04-26T21:54:14.162Z,95148.38
2023-04-26T21:56:41.890Z,95154.72
2023-04-26T21:59:10.325Z,95153.88
2023-04-26T22:01:39.470Z,95153.22
2023-04-26T22:04:07.169Z,95154.22
2023-04-26T22:06:34.843Z,95155.16
2023-04-26T22:09:03.384Z,95151.06
2023-04-26T22:11:31.188Z,95163.19
2023-04-26T22:13:58.797Z,95157.28
2023-04-26T22:16:26.498Z,95156.28
2023-04-26T22:18:55.462Z,95151.22
2023-04-26T22:21:23.228Z,95155.63
2023-04-26T22:23:50.979Z,95149.56
2023-04-26T22:26:18.627Z,95152.19
2023-04-26T22:28:46.257Z,95154.78
2023-04-26T22:31:13.883Z,95152.34
2023-04-26T22:33:41.510Z,95158.41
2023-04-26T22:36:10.973Z,95155.78
2023-04-26T22:38:38.615Z,95157.56
2023-04-26T22:41:07.268Z,95151.53
2023-04-26T22:43:35.950Z,95158.56
2023-04-26T22:46:03.636Z,95161.53
2023-04-26T22:48:31.268Z,95152.84
2023-04-26T22:50:59.941Z,95153.00
2023-04-26T22:53:28.912Z,95155.78
2023-04-26T22:55:56.461Z,95157.56
2023-04-26T22:58:24.074Z,95165.41
2023-04-26T23:00:51.695Z,95162.13
2023-04-26T23:03:19.455Z,95163.91
2023-04-26T23:05:47.346Z,95166.53
2023-04-26T23:08:14.947Z,95167.53
2023-04-26T23:10:43.880Z,95170.13
2023-04-26T23:13:11.461Z,95167.53
2023-04-26T23:15:39.160Z,95167.66
2023-04-26T23:18:07.080Z,95165.88
2023-04-26T23:20:34.687Z,95169.31
2023-04-26T23:23:02.294Z,95168.66
2023-04-26T23:25:29.860Z,95164.25
2023-04-26T23:27:58.870Z,95160.81
2023-04-26T23:30:26.753Z,95174.00
2023-04-26T23:32:54.482Z,95163.53
2023-04-26T23:35:22.126Z,95166.16
2023-04-26T23:37:52.254Z,95161.75
2023-04-26T23:40:20.259Z,95166.16
2023-04-26T23:42:47.875Z,95164.38
2023-04-26T23:45:18.629Z,95164.38
2023-04-26T23:47:46.469Z,95159.16
2023-04-26T23:50:14.025Z,95154.09
2023-04-26T23:52:41.627Z,95162.59
2023-04-26T23:55:10.223Z,95152.13
2023-04-26T23:57:37.911Z,95151.31
